AFR754 FZAA-LFPG
Flight info
| Callsign | AFR754 |
|---|---|
| Flight time | N/A |
| Altitude | 37000 |
| Route | GUSAR4B GUSAR DCT AMSIK/N0498F360 UM998 PIMTA/N0493F380 UM998 OPDAP/N0494F370 UW605 ENERI UQ589 IKREV DCT PODGA/N0491F380 UM214 GARIN M214 ELGAN/N0485F400 M214 SEB M999 IMN UR985 RIMEL UA605 CIRTA DCT NESUL DCT BARSO DCT IRMAR DCT KINES DCT VANAS DCT MOBLO DCT UBIMA DCT UNKIR/N0483F380 DCT GIVRI DCT TINIL |
| Aircraft | A359/H-SDE2E3GHIJ3J4J5LM1ORWXY/LB1D1 |
Departure
| Time | 2026-05-07 07:03 |
|---|---|
| Airport | Ndjili International Airport (FZAA) |
Arrival
| Time | N/A |
|---|---|
| Airport | Charles de Gaulle International Airport (LFPG) |
| Time | Latitude | Longitude | Altitude | Speed | Heading |
|---|---|---|---|---|---|
| 2026-05-07 06:38 | -4.38852 | 15.44547 | 1017 ft | 0 kts | 200° |
| 2026-05-07 06:56 | -4.38831 | 15.44554 | 469 ft | 4 kts | 191° |
| 2026-05-07 06:56 | -4.38805 | 15.44557 | 858 ft | 4 kts | 176° |
| 2026-05-07 06:56 | -4.38778 | 15.44553 | 1017 ft | 4 kts | 164° |
| 2026-05-07 06:56 | -4.38752 | 15.44545 | 1017 ft | 4 kts | 170° |
| 2026-05-07 06:57 | -4.38735 | 15.44545 | 1017 ft | 2 kts | 236° |
| 2026-05-07 06:57 | -4.38734 | 15.44546 | 1017 ft | 1 kts | 237° |
| 2026-05-07 06:59 | -4.38751 | 15.44523 | 1017 ft | 16 kts | 233° |
| 2026-05-07 06:59 | -4.38851 | 15.44368 | 1017 ft | 36 kts | 238° |
| 2026-05-07 06:59 | -4.38931 | 15.44167 | 1016 ft | 23 kts | 307° |
| 2026-05-07 07:00 | -4.38891 | 15.44095 | 1015 ft | 9 kts | 294° |
| 2026-05-07 07:00 | -4.38871 | 15.44053 | 1015 ft | 5 kts | 292° |
| 2026-05-07 07:00 | -4.38866 | 15.44025 | 1015 ft | 4 kts | 264° |
| 2026-05-07 07:00 | -4.38907 | 15.43939 | 1015 ft | 25 kts | 237° |
| 2026-05-07 07:01 | -4.39043 | 15.43724 | 1015 ft | 47 kts | 238° |
| 2026-05-07 07:01 | -4.39250 | 15.43409 | 1016 ft | 63 kts | 237° |
| 2026-05-07 07:01 | -4.39511 | 15.43010 | 1013 ft | 67 kts | 237° |
| 2026-05-07 07:01 | -4.39709 | 15.42729 | 1011 ft | 24 kts | 268° |
| 2026-05-07 07:02 | -4.39685 | 15.42717 | 1011 ft | 0 kts | 59° |
| 2026-05-07 07:02 | -4.39682 | 15.42723 | 1011 ft | 9 kts | 59° |
| 2026-05-07 07:02 | -4.39494 | 15.43015 | 1013 ft | 90 kts | 57° |
| 2026-05-07 07:03 | -4.39014 | 15.43759 | 1015 ft | 162 kts | 57° |
| 2026-05-07 07:03 | -4.38302 | 15.44851 | 1308 ft | 201 kts | 56° |
| 2026-05-07 07:03 | -4.37534 | 15.46026 | 2316 ft | 203 kts | 56° |
| 2026-05-07 07:03 | -4.36717 | 15.47279 | 3000 ft | 227 kts | 57° |
| 2026-05-07 07:04 | -4.35816 | 15.48661 | 3849 ft | 245 kts | 56° |
| 2026-05-07 07:04 | -4.34865 | 15.50116 | 4864 ft | 254 kts | 56° |
| 2026-05-07 07:04 | -4.33887 | 15.51615 | 5946 ft | 259 kts | 56° |
| 2026-05-07 07:04 | -4.32889 | 15.53141 | 6995 ft | 265 kts | 57° |
| 2026-05-07 07:05 | -4.31871 | 15.54695 | 7986 ft | 271 kts | 57° |
| 2026-05-07 07:05 | -4.30626 | 15.56155 | 8864 ft | 280 kts | 43° |
| 2026-05-07 07:05 | -4.29013 | 15.57271 | 9780 ft | 284 kts | 31° |